Time;durP1;ratioP1;P1;durP2;ratioP2;P2;SDS_P1;SDS_P2;PMS_P1;PMS_P2;Temp;Humidity;BMP_temperature;BMP_pressure;BME280_temperature;BME280_humidity;BME280_pressure;Samples;Min_cycle;Max_cycle;Signal;HPM_P1;HPM_P2
2020/12/04 00:00:52;;;;;;;34.37;18.03;;;;;;;;;;5015252;28;20599;-75
2020/12/04 00:03:57;;;;;;;34.87;18.07;;;;;;;;;;5015555;28;20540;-75
2020/12/04 00:07:02;;;;;;;35.07;17.63;;;;;;;;;;5003087;28;20711;-74
2020/12/04 00:10:06;;;;;;;39.20;18.70;;;;;;;;;;5015090;28;20974;-75
2020/12/04 00:13:10;;;;;;;36.57;18.53;;;;;;;;;;5003271;28;20544;-74
2020/12/04 00:16:14;;;;;;;34.40;17.73;;;;;;;;;;5014285;28;20635;-75
2020/12/04 00:19:18;;;;;;;36.10;18.10;;;;;;;;;;5015231;28;20544;-74
2020/12/04 00:22:22;;;;;;;34.53;18.23;;;;;;;;;;5003039;28;20652;-75
2020/12/04 00:25:26;;;;;;;35.60;18.13;;;;;;;;;;5002958;28;20568;-75
2020/12/04 00:28:30;;;;;;;38.23;18.10;;;;;;;;;;5015052;28;20554;-75
2020/12/04 00:31:35;;;;;;;37.93;18.30;;;;;;;;;;5002840;28;20556;-74
2020/12/04 00:34:39;;;;;;;38.03;17.97;;;;;;;;;;5002931;28;20552;-74
2020/12/04 00:37:43;;;;;;;32.63;17.43;;;;;;;;;;5014898;28;20540;-74
2020/12/04 00:40:47;;;;;;;34.43;18.30;;;;;;;;;;5014742;28;20554;-74
2020/12/04 00:43:51;;;;;;;40.00;19.37;;;;;;;;;;5002765;28;20552;-75
2020/12/04 00:46:59;;;;;;;38.43;18.90;;;;;;;;;;5014548;28;20635;-75
2020/12/04 00:50:05;;;;;;;35.17;17.53;;;;;;;;;;5014671;28;20899;-75
2020/12/04 00:53:09;;;;;;;32.63;17.00;;;;;;;;;;5002639;28;20548;-75
2020/12/04 00:56:18;;;;;;;35.60;18.33;;;;;;;;;;5002075;28;20650;-75
2020/12/04 00:59:23;;;;;;;35.97;18.47;;;;;;;;;;5014565;28;20549;-75
2020/12/04 01:02:27;;;;;;;39.30;18.67;;;;;;;;;;5014235;28;20612;-75
2020/12/04 01:05:31;;;;;;;35.87;18.43;;;;;;;;;;5014558;28;20608;-75
2020/12/04 01:08:35;;;;;;;37.03;18.27;;;;;;;;;;5001978;28;20608;-75
2020/12/04 01:11:39;;;;;;;39.07;18.17;;;;;;;;;;5014116;28;20560;-75
2020/12/04 01:14:43;;;;;;;35.00;17.67;;;;;;;;;;5013972;28;20569;-75
2020/12/04 01:17:48;;;;;;;35.37;18.17;;;;;;;;;;5013918;28;20572;-75
2020/12/04 01:20:52;;;;;;;33.70;17.93;;;;;;;;;;5001510;28;20892;-74
2020/12/04 01:23:56;;;;;;;33.67;17.97;;;;;;;;;;5013307;28;20548;-74
2020/12/04 01:27:00;;;;;;;31.70;18.10;;;;;;;;;;5001623;28;20623;-74
2020/12/04 01:30:04;;;;;;;39.07;19.37;;;;;;;;;;5013581;28;21110;-73
2020/12/04 01:33:08;;;;;;;34.73;17.63;;;;;;;;;;5001410;28;20558;-74
2020/12/04 01:36:14;;;;;;;34.40;17.27;;;;;;;;;;5012866;28;20638;-74
2020/12/04 01:39:18;;;;;;;35.93;18.03;;;;;;;;;;5013655;28;20561;-74
2020/12/04 01:42:23;;;;;;;37.17;19.70;;;;;;;;;;5001528;28;20680;-73
2020/12/04 01:45:27;;;;;;;39.53;19.00;;;;;;;;;;5013544;28;20540;-73
2020/12/04 01:48:30;;;;;;;33.37;17.97;;;;;;;;;;5013560;28;20548;-74
2020/12/04 01:51:36;;;;;;;36.53;18.63;;;;;;;;;;5013511;28;20556;-74
2020/12/04 01:54:41;;;;;;;36.63;18.13;;;;;;;;;;5001308;28;20563;-73
2020/12/04 01:57:47;;;;;;;37.37;18.27;;;;;;;;;;5013128;28;20618;-74
2020/12/04 02:00:51;;;;;;;35.90;18.63;;;;;;;;;;5001573;28;20552;-73
2020/12/04 02:03:55;;;;;;;39.33;19.40;;;;;;;;;;5013370;28;20541;-74
2020/12/04 02:07:19;;;;;;;37.10;19.10;;;;;;;;;;5013114;28;20635;-74
2020/12/04 02:10:38;;;;;;;42.77;20.73;;;;;;;;;;5013158;28;20915;-73
2020/12/04 02:13:46;;;;;;;36.67;19.17;;;;;;;;;;5013280;28;20545;-74
2020/12/04 02:17:08;;;;;;;42.47;20.60;;;;;;;;;;5012897;28;20627;-73
2020/12/04 02:20:13;;;;;;;38.83;20.03;;;;;;;;;;5013304;28;20552;-73
2020/12/04 02:23:17;;;;;;;39.70;19.70;;;;;;;;;;5001362;28;20607;-73
2020/12/04 02:26:22;;;;;;;36.07;19.40;;;;;;;;;;5001002;28;21208;-75
2020/12/04 02:29:27;;;;;;;39.93;18.83;;;;;;;;;;5013399;28;20544;-74
2020/12/04 02:32:31;;;;;;;34.93;18.23;;;;;;;;;;5004886;28;20568;-74
2020/12/04 02:35:35;;;;;;;41.10;20.03;;;;;;;;;;5017195;28;22392;-74
2020/12/04 02:38:40;;;;;;;41.27;19.17;;;;;;;;;;5016321;28;20912;-75
2020/12/04 02:41:45;;;;;;;36.53;18.93;;;;;;;;;;5004721;28;20595;-75
2020/12/04 02:44:49;;;;;;;40.30;20.17;;;;;;;;;;5017038;28;21102;-75
2020/12/04 02:47:53;;;;;;;42.27;19.83;;;;;;;;;;5004552;28;20606;-75
2020/12/04 02:50:57;;;;;;;37.50;19.20;;;;;;;;;;5016866;28;20607;-74
2020/12/04 02:54:01;;;;;;;39.63;19.37;;;;;;;;;;5016548;28;20599;-75
2020/12/04 02:57:05;;;;;;;39.97;19.63;;;;;;;;;;5016556;28;20646;-75
2020/12/04 03:00:09;;;;;;;41.73;20.97;;;;;;;;;;5017079;28;20549;-75
2020/12/04 03:03:14;;;;;;;34.80;18.90;;;;;;;;;;5004694;28;20967;-75
2020/12/04 03:06:18;;;;;;;37.07;19.10;;;;;;;;;;5004492;28;20639;-75
2020/12/04 03:09:22;;;;;;;38.93;19.30;;;;;;;;;;5016618;28;20547;-75
2020/12/04 03:12:27;;;;;;;39.20;20.83;;;;;;;;;;5016572;28;20544;-75
2020/12/04 03:15:31;;;;;;;39.47;19.43;;;;;;;;;;5016163;28;20551;-75
2020/12/04 03:18:35;;;;;;;36.93;17.83;;;;;;;;;;5016432;28;20552;-75
2020/12/04 03:21:39;;;;;;;39.07;19.50;;;;;;;;;;5016026;28;20551;-76
2020/12/04 03:24:43;;;;;;;42.87;20.50;;;;;;;;;;5016325;28;20575;-75
2020/12/04 03:27:47;;;;;;;39.47;19.50;;;;;;;;;;5003849;28;20603;-75
2020/12/04 03:30:52;;;;;;;35.17;19.60;;;;;;;;;;5016223;28;20611;-75
2020/12/04 03:33:56;;;;;;;42.13;21.13;;;;;;;;;;5016333;28;20603;-75
2020/12/04 03:37:01;;;;;;;46.27;19.80;;;;;;;;;;5004609;28;20970;-75
2020/12/04 03:40:05;;;;;;;42.70;20.30;;;;;;;;;;5016338;28;20548;-75
2020/12/04 03:43:10;;;;;;;44.37;20.70;;;;;;;;;;5003260;28;20599;-75
2020/12/04 03:46:14;;;;;;;41.67;19.43;;;;;;;;;;5015474;28;20630;-75
2020/12/04 03:49:18;;;;;;;44.33;22.17;;;;;;;;;;5003472;28;20619;-75
2020/12/04 03:52:22;;;;;;;41.47;19.47;;;;;;;;;;5016033;28;20896;-75
2020/12/04 03:55:26;;;;;;;41.90;21.13;;;;;;;;;;5014469;28;20606;-75
2020/12/04 03:58:30;;;;;;;39.10;20.33;;;;;;;;;;5015698;28;20607;-75
2020/12/04 04:01:34;;;;;;;43.63;20.63;;;;;;;;;;5015334;28;20615;-76
2020/12/04 04:04:39;;;;;;;42.33;20.43;;;;;;;;;;5003300;28;20971;-76
2020/12/04 04:07:43;;;;;;;40.60;20.20;;;;;;;;;;5014480;28;20548;-76
2020/12/04 04:10:47;;;;;;;40.23;19.47;;;;;;;;;;5015410;28;20559;-75
2020/12/04 04:13:51;;;;;;;45.73;20.40;;;;;;;;;;5005681;28;20593;-75
2020/12/04 04:16:56;;;;;;;39.10;20.30;;;;;;;;;;4983461;28;21019;-75
2020/12/04 04:20:00;;;;;;;43.97;21.07;;;;;;;;;;4983498;28;20604;-76
2020/12/04 04:23:04;;;;;;;40.10;21.30;;;;;;;;;;4984507;28;20636;-75
2020/12/04 04:26:08;;;;;;;41.23;20.00;;;;;;;;;;4990944;28;21259;-75
2020/12/04 04:29:13;;;;;;;44.77;20.63;;;;;;;;;;4991658;28;20685;-76
2020/12/04 04:32:17;;;;;;;42.03;19.50;;;;;;;;;;4995159;28;20557;-75
2020/12/04 04:35:21;;;;;;;42.97;19.73;;;;;;;;;;4995582;28;20553;-75
2020/12/04 04:38:25;;;;;;;41.23;20.17;;;;;;;;;;4987467;28;20595;-75
2020/12/04 04:41:30;;;;;;;36.83;19.83;;;;;;;;;;5014728;28;20904;-75
2020/12/04 04:44:34;;;;;;;41.83;20.00;;;;;;;;;;5001266;28;20968;-76
2020/12/04 04:47:41;;;;;;;37.93;20.43;;;;;;;;;;5010896;28;21249;-75
2020/12/04 04:50:46;;;;;;;41.33;21.83;;;;;;;;;;4996568;28;20631;-74
2020/12/04 04:53:56;;;;;;;38.90;21.23;;;;;;;;;;4994652;28;21096;-74
2020/12/04 04:57:01;;;;;;;39.27;19.63;;;;;;;;;;5019001;23;20698;-73
2020/12/04 05:00:05;;;;;;;40.27;20.67;;;;;;;;;;5033981;28;20610;-72
2020/12/04 05:03:10;;;;;;;44.97;20.73;;;;;;;;;;5033942;28;21267;-73
2020/12/04 05:06:29;;;;;;;42.83;20.63;;;;;;;;;;5026167;28;20631;-71
2020/12/04 05:09:33;;;;;;;42.13;20.33;;;;;;;;;;5014392;28;20907;-71
2020/12/04 05:12:39;;;;;;;40.80;20.47;;;;;;;;;;5014025;28;20603;-71
2020/12/04 05:15:43;;;;;;;39.47;20.30;;;;;;;;;;5014162;28;20634;-71
2020/12/04 05:18:47;;;;;;;38.20;20.23;;;;;;;;;;5014236;28;21085;-71
2020/12/04 05:21:51;;;;;;;38.80;19.37;;;;;;;;;;5002039;28;20548;-71
2020/12/04 05:24:55;;;;;;;37.23;19.77;;;;;;;;;;5002016;28;20537;-71
2020/12/04 05:28:19;;;;;;;34.93;19.00;;;;;;;;;;5013013;28;20548;-71
2020/12/04 05:31:29;;;;;;;40.17;19.73;;;;;;;;;;5013980;28;20556;-71
2020/12/04 05:34:33;;;;;;;40.73;19.60;;;;;;;;;;5013998;28;20540;-71
2020/12/04 05:37:37;;;;;;;41.70;19.60;;;;;;;;;;5013636;28;20623;-71
2020/12/04 05:40:45;;;;;;;38.83;19.90;;;;;;;;;;5013901;28;20560;-71
2020/12/04 05:43:52;;;;;;;35.67;18.30;;;;;;;;;;5013743;28;20599;-71
2020/12/04 05:46:57;;;;;;;35.87;18.93;;;;;;;;;;5013619;28;20631;-72
2020/12/04 05:50:01;;;;;;;38.33;19.57;;;;;;;;;;5013769;28;20544;-72
2020/12/04 05:53:06;;;;;;;35.93;19.27;;;;;;;;;;5013754;28;20556;-72
2020/12/04 05:56:10;;;;;;;43.57;21.07;;;;;;;;;;5001407;28;20631;-72
2020/12/04 05:59:21;;;;;;;35.60;17.30;;;;;;;;;;5013420;28;20544;-72
2020/12/04 06:02:25;;;;;;;37.10;18.83;;;;;;;;;;5013475;28;20564;-72
2020/12/04 06:05:30;;;;;;;39.07;18.97;;;;;;;;;;5013017;28;20738;-72
2020/12/04 06:08:40;;;;;;;39.83;19.67;;;;;;;;;;5013579;28;20543;-72
2020/12/04 06:11:46;;;;;;;38.67;19.80;;;;;;;;;;4990171;28;20564;-72
2020/12/04 06:14:51;;;;;;;34.77;17.43;;;;;;;;;;5013214;28;20540;-72
2020/12/04 06:18:13;;;;;;;36.03;19.80;;;;;;;;;;5001083;28;20607;-72
2020/12/04 06:21:46;;;;;;;37.60;19.40;;;;;;;;;;5013205;28;21113;-72
2020/12/04 06:24:56;;;;;;;37.90;19.57;;;;;;;;;;5001278;28;20552;-72
2020/12/04 06:28:15;;;;;;;34.73;18.63;;;;;;;;;;5013602;28;20563;-72
2020/12/04 06:31:19;;;;;;;35.53;18.60;;;;;;;;;;4990017;28;20916;-72
2020/12/04 06:34:23;;;;;;;44.03;19.67;;;;;;;;;;5013369;28;20536;-72
2020/12/04 06:37:54;;;;;;;41.03;19.47;;;;;;;;;;5000975;28;20627;-72
2020/12/04 06:41:17;;;;;;;41.40;20.40;;;;;;;;;;5012958;28;20931;-72
2020/12/04 06:44:24;;;;;;;42.03;18.67;;;;;;;;;;5012949;28;20943;-72
2020/12/04 06:47:28;;;;;;;38.07;18.67;;;;;;;;;;5000819;28;20998;-72
2020/12/04 06:50:44;;;;;;;39.07;20.43;;;;;;;;;;5013120;28;21081;-72
2020/12/04 06:53:51;;;;;;;40.17;19.70;;;;;;;;;;4989931;28;21105;-72
2020/12/04 06:56:56;;;;;;;42.33;21.13;;;;;;;;;;5000858;28;20994;-72
2020/12/04 07:00:00;;;;;;;39.87;20.37;;;;;;;;;;5013034;28;20551;-72
2020/12/04 07:03:04;;;;;;;41.23;18.93;;;;;;;;;;5012521;28;20619;-72
2020/12/04 07:06:08;;;;;;;36.67;19.00;;;;;;;;;;5012844;28;20627;-72
2020/12/04 07:09:13;;;;;;;40.80;20.87;;;;;;;;;;5012632;28;20615;-72
2020/12/04 07:12:20;;;;;;;42.20;20.77;;;;;;;;;;5012732;28;20564;-72
2020/12/04 07:15:25;;;;;;;41.03;20.57;;;;;;;;;;5012906;28;20891;-72
2020/12/04 07:18:29;;;;;;;43.73;20.57;;;;;;;;;;5014822;28;20552;-72
2020/12/04 07:21:36;;;;;;;42.67;20.33;;;;;;;;;;5004022;28;20616;-72
2020/12/04 07:24:40;;;;;;;37.23;19.23;;;;;;;;;;5016275;28;20595;-73
2020/12/04 07:27:44;;;;;;;41.57;20.57;;;;;;;;;;5015972;28;20564;-72
2020/12/04 07:30:48;;;;;;;39.73;19.17;;;;;;;;;;5015944;28;20576;-72
2020/12/04 07:33:58;;;;;;;35.30;19.17;;;;;;;;;;5015785;28;20599;-72
2020/12/04 07:37:03;;;;;;;36.20;19.90;;;;;;;;;;5016261;28;20635;-72
2020/12/04 07:40:07;;;;;;;37.40;19.20;;;;;;;;;;5016011;28;20655;-72
2020/12/04 07:43:12;;;;;;;37.57;18.87;;;;;;;;;;5003770;28;21154;-72
2020/12/04 07:46:19;;;;;;;37.37;19.40;;;;;;;;;;5003698;28;20635;-72
2020/12/04 07:49:23;;;;;;;41.77;20.10;;;;;;;;;;5015798;28;20548;-72
2020/12/04 07:52:31;;;;;;;37.13;19.10;;;;;;;;;;4993254;28;20544;-72
2020/12/04 07:55:38;;;;;;;33.23;18.43;;;;;;;;;;4991968;28;20963;-72
2020/12/04 07:58:43;;;;;;;39.27;20.60;;;;;;;;;;5015553;28;20619;-73
2020/12/04 08:01:47;;;;;;;36.73;19.57;;;;;;;;;;5003501;28;20568;-72
2020/12/04 08:04:52;;;;;;;39.77;19.40;;;;;;;;;;5015488;28;21161;-72
2020/12/04 08:07:56;;;;;;;38.23;19.73;;;;;;;;;;5015444;28;20548;-72
2020/12/04 08:11:12;;;;;;;43.13;20.40;;;;;;;;;;5015193;28;20923;-72
2020/12/04 08:14:22;;;;;;;38.07;19.43;;;;;;;;;;5015376;28;20548;-72
2020/12/04 08:17:29;;;;;;;38.10;19.73;;;;;;;;;;5014921;28;20627;-72
2020/12/04 08:20:33;;;;;;;36.03;20.13;;;;;;;;;;5015487;28;20552;-72
2020/12/04 08:23:38;;;;;;;38.07;19.27;;;;;;;;;;5015128;28;20714;-72
2020/12/04 08:26:42;;;;;;;54.50;28.30;;;;;;;;;;5014823;28;20983;-72
2020/12/04 08:30:04;;;;;;;41.80;23.13;;;;;;;;;;5014663;28;20994;-72
2020/12/04 08:33:09;;;;;;;33.70;19.03;;;;;;;;;;5014717;28;20568;-72
2020/12/04 08:36:13;;;;;;;38.63;19.63;;;;;;;;;;5014752;28;20627;-72
2020/12/04 08:39:17;;;;;;;36.63;20.20;;;;;;;;;;5002666;28;20544;-72
2020/12/04 08:42:31;;;;;;;40.97;21.33;;;;;;;;;;5013795;28;20544;-72
2020/12/04 08:45:36;;;;;;;36.97;20.50;;;;;;;;;;5014187;28;20536;-72
2020/12/04 08:48:41;;;;;;;66.90;32.73;;;;;;;;;;5013888;28;20599;-71
2020/12/04 08:51:46;;;;;;;36.03;20.30;;;;;;;;;;5014433;28;20549;-71
2020/12/04 08:54:50;;;;;;;48.87;23.77;;;;;;;;;;5014554;28;20555;-71
2020/12/04 08:57:56;;;;;;;38.43;20.27;;;;;;;;;;5013486;28;20626;-71
2020/12/04 09:01:00;;;;;;;35.93;19.53;;;;;;;;;;5014492;28;20547;-72
2020/12/04 09:04:04;;;;;;;38.80;20.67;;;;;;;;;;4990835;28;20599;-71
2020/12/04 09:07:09;;;;;;;38.07;20.43;;;;;;;;;;5013384;28;20635;-71
2020/12/04 09:10:16;;;;;;;34.40;19.33;;;;;;;;;;5002279;28;20548;-72
2020/12/04 09:13:20;;;;;;;35.13;18.73;;;;;;;;;;5014034;28;21097;-71
2020/12/04 09:16:24;;;;;;;34.40;19.17;;;;;;;;;;5013914;28;20626;-72
2020/12/04 09:19:28;;;;;;;36.13;19.97;;;;;;;;;;5013910;28;20556;-72
2020/12/04 09:22:33;;;;;;;36.03;18.30;;;;;;;;;;5014176;28;20552;-72
2020/12/04 09:25:37;;;;;;;36.23;19.30;;;;;;;;;;5013761;28;20667;-72
2020/12/04 09:28:41;;;;;;;36.20;19.53;;;;;;;;;;5014013;28;20552;-72
2020/12/04 09:31:46;;;;;;;33.57;19.13;;;;;;;;;;5013908;28;20896;-71
2020/12/04 09:34:50;;;;;;;33.80;18.90;;;;;;;;;;5013995;28;20895;-72
2020/12/04 09:37:54;;;;;;;33.87;18.33;;;;;;;;;;5013970;28;20544;-72
2020/12/04 09:40:59;;;;;;;31.37;17.37;;;;;;;;;;5001010;28;20559;-71
2020/12/04 09:44:02;;;;;;;36.07;18.17;;;;;;;;;;5013430;28;20646;-71
2020/12/04 09:47:08;;;;;;;30.43;17.30;;;;;;;;;;5013522;28;21216;-72
2020/12/04 09:50:15;;;;;;;33.30;17.07;;;;;;;;;;5013642;28;20552;-72
2020/12/04 09:53:19;;;;;;;33.30;18.07;;;;;;;;;;5012533;28;20607;-72
2020/12/04 09:56:23;;;;;;;29.97;16.87;;;;;;;;;;5013332;28;20991;-72
2020/12/04 09:59:27;;;;;;;31.03;16.33;;;;;;;;;;5001565;28;20898;-72
2020/12/04 10:02:31;;;;;;;33.27;16.73;;;;;;;;;;5013382;28;20561;-72
2020/12/04 10:05:35;;;;;;;28.33;16.30;;;;;;;;;;5013393;28;20596;-72
2020/12/04 10:08:39;;;;;;;26.40;16.03;;;;;;;;;;5001156;28;20617;-72
2020/12/04 10:11:44;;;;;;;27.97;15.17;;;;;;;;;;5013166;28;20596;-72
2020/12/04 10:14:48;;;;;;;25.47;15.83;;;;;;;;;;5013769;28;21084;-73
2020/12/04 10:17:52;;;;;;;27.00;16.00;;;;;;;;;;5013246;28;20557;-72
2020/12/04 10:20:56;;;;;;;26.20;15.63;;;;;;;;;;4990224;28;20552;-72
2020/12/04 10:24:01;;;;;;;28.53;15.83;;;;;;;;;;5013327;28;20598;-72
2020/12/04 10:27:05;;;;;;;30.10;16.97;;;;;;;;;;5013184;28;20628;-72
2020/12/04 10:30:09;;;;;;;28.23;17.00;;;;;;;;;;5012246;28;20600;-72
2020/12/04 10:33:13;;;;;;;31.30;15.97;;;;;;;;;;5013034;28;20553;-72
2020/12/04 10:36:17;;;;;;;27.77;16.03;;;;;;;;;;5013418;28;21219;-72
2020/12/04 10:39:22;;;;;;;27.67;16.10;;;;;;;;;;5013254;28;20545;-72
2020/12/04 10:42:26;;;;;;;27.60;15.20;;;;;;;;;;5013022;28;20560;-72
2020/12/04 10:45:30;;;;;;;27.63;16.43;;;;;;;;;;5000976;28;20600;-72
2020/12/04 10:48:34;;;;;;;28.63;16.40;;;;;;;;;;5001169;28;20541;-72
2020/12/04 10:51:38;;;;;;;31.27;17.47;;;;;;;;;;5012060;28;20545;-72
2020/12/04 10:54:43;;;;;;;28.80;16.30;;;;;;;;;;5016886;28;20544;-72
2020/12/04 10:57:47;;;;;;;29.07;16.50;;;;;;;;;;5016313;28;21232;-72
2020/12/04 11:00:51;;;;;;;29.10;14.47;;;;;;;;;;5016968;28;20548;-72
2020/12/04 11:07:00;;;;;;;26.90;15.57;;;;;;;;;;5004283;28;20623;-72
2020/12/04 11:10:04;;;;;;;29.93;16.53;;;;;;;;;;5004177;28;20557;-73
2020/12/04 11:13:09;;;;;;;29.10;17.10;;;;;;;;;;5016271;28;21117;-72
2020/12/04 11:16:13;;;;;;;29.83;17.07;;;;;;;;;;5016443;28;20620;-72
2020/12/04 11:19:17;;;;;;;28.43;16.63;;;;;;;;;;5004356;28;21075;-72
2020/12/04 11:22:22;;;;;;;27.83;15.87;;;;;;;;;;5004285;28;20894;-72
2020/12/04 11:25:26;;;;;;;26.60;15.53;;;;;;;;;;5004007;28;20975;-72
2020/12/04 11:28:30;;;;;;;27.33;16.47;;;;;;;;;;5004225;28;20549;-72
2020/12/04 11:31:34;;;;;;;27.30;15.53;;;;;;;;;;5016410;28;20561;-72
2020/12/04 11:34:38;;;;;;;28.73;16.23;;;;;;;;;;5010356;23;20697;-81
2020/12/04 11:37:46;;;;;;;28.17;16.17;;;;;;;;;;4973912;28;20608;-81
2020/12/04 11:40:51;;;;;;;28.63;16.93;;;;;;;;;;4974424;28;20609;-81
2020/12/04 11:43:55;;;;;;;30.37;16.50;;;;;;;;;;4984742;28;20624;-81
2020/12/04 11:47:00;;;;;;;27.60;16.07;;;;;;;;;;4984985;28;20530;-81
2020/12/04 11:50:24;;;;;;;26.73;16.07;;;;;;;;;;4985191;28;21087;-81
2020/12/04 11:53:28;;;;;;;26.67;15.07;;;;;;;;;;4996678;28;20629;-81
2020/12/04 11:56:32;;;;;;;27.40;15.40;;;;;;;;;;4962451;28;20597;-81
2020/12/04 11:59:37;;;;;;;27.77;16.43;;;;;;;;;;4973828;28;20870;-81
2020/12/04 12:02:41;;;;;;;25.83;15.60;;;;;;;;;;4961957;28;20553;-81
2020/12/04 12:05:45;;;;;;;25.93;15.87;;;;;;;;;;4973168;28;20585;-81
2020/12/04 12:08:48;;;;;;;25.53;15.97;;;;;;;;;;4962943;28;20608;-81
2020/12/04 12:11:53;;;;;;;26.43;15.33;;;;;;;;;;4962015;28;20601;-81
2020/12/04 12:14:57;;;;;;;31.83;16.37;;;;;;;;;;4973436;28;20617;-83
2020/12/04 12:18:03;;;;;;;32.27;16.73;;;;;;;;;;4973771;28;20550;-83
2020/12/04 12:21:08;;;;;;;26.87;15.13;;;;;;;;;;4962507;28;20596;-83
2020/12/04 12:24:11;;;;;;;26.97;14.60;;;;;;;;;;4973047;28;20616;-83
2020/12/04 12:27:16;;;;;;;23.77;14.27;;;;;;;;;;4973265;28;20530;-82
2020/12/04 12:30:20;;;;;;;26.23;15.40;;;;;;;;;;4973375;28;20550;-80
2020/12/04 12:33:25;;;;;;;24.80;14.93;;;;;;;;;;4983557;28;20642;-80
2020/12/04 12:36:29;;;;;;;26.07;14.57;;;;;;;;;;4983852;28;20542;-80
2020/12/04 12:39:33;;;;;;;24.97;14.80;;;;;;;;;;4961711;28;20538;-80
2020/12/04 12:42:38;;;;;;;27.23;15.87;;;;;;;;;;4972396;28;20549;-81
2020/12/04 12:45:43;;;;;;;24.90;14.10;;;;;;;;;;4972438;28;20942;-80
2020/12/04 12:48:47;;;;;;;23.83;14.37;;;;;;;;;;4983416;28;20549;-80
2020/12/04 12:51:51;;;;;;;21.57;13.43;;;;;;;;;;4972810;28;20541;-80
2020/12/04 12:54:55;;;;;;;22.07;13.13;;;;;;;;;;4961196;28;20633;-80
2020/12/04 12:57:59;;;;;;;27.97;15.20;;;;;;;;;;4972031;28;20885;-80
2020/12/04 13:01:03;;;;;;;25.77;14.57;;;;;;;;;;4972305;28;20538;-80
2020/12/04 13:04:07;;;;;;;23.53;14.73;;;;;;;;;;4972196;28;20620;-80
2020/12/04 13:07:12;;;;;;;25.57;14.13;;;;;;;;;;4971780;28;20581;-79
2020/12/04 13:10:16;;;;;;;22.07;12.97;;;;;;;;;;4994966;28;20676;-81
2020/12/04 13:13:20;;;;;;;23.10;13.40;;;;;;;;;;4972092;28;20625;-80
2020/12/04 13:16:24;;;;;;;22.93;13.43;;;;;;;;;;4982440;28;20554;-80
2020/12/04 13:19:29;;;;;;;22.20;13.60;;;;;;;;;;4971974;28;20545;-79
2020/12/04 13:22:33;;;;;;;21.50;12.70;;;;;;;;;;4982787;28;20604;-80
2020/12/04 13:25:37;;;;;;;21.63;12.07;;;;;;;;;;4971856;28;21228;-80
2020/12/04 13:28:41;;;;;;;20.23;11.83;;;;;;;;;;4971842;28;20550;-80
2020/12/04 13:31:49;;;;;;;21.03;12.00;;;;;;;;;;4971699;28;20566;-80
2020/12/04 13:34:53;;;;;;;17.57;11.10;;;;;;;;;;4982811;28;20645;-81
2020/12/04 13:37:57;;;;;;;18.57;11.23;;;;;;;;;;4961785;28;20894;-81
2020/12/04 13:41:01;;;;;;;17.77;10.77;;;;;;;;;;4972488;28;20549;-82
2020/12/04 13:44:06;;;;;;;17.93;10.97;;;;;;;;;;4983776;28;20621;-81
2020/12/04 13:47:10;;;;;;;17.57;10.10;;;;;;;;;;4972726;28;20549;-81
2020/12/04 13:50:15;;;;;;;16.17;10.13;;;;;;;;;;4962683;28;20548;-81
2020/12/04 13:53:19;;;;;;;16.03;9.93;;;;;;;;;;4972685;28;20625;-81
2020/12/04 13:56:23;;;;;;;18.23;10.10;;;;;;;;;;4972488;28;20554;-81
2020/12/04 13:59:27;;;;;;;18.23;10.10;;;;;;;;;;4983280;28;20593;-82
2020/12/04 14:02:32;;;;;;;17.73;9.53;;;;;;;;;;4972249;28;20608;-81
2020/12/04 14:05:36;;;;;;;17.23;9.80;;;;;;;;;;4972146;28;20652;-81
2020/12/04 14:08:40;;;;;;;18.40;9.83;;;;;;;;;;4960524;28;20558;-81
2020/12/04 14:11:44;;;;;;;15.77;9.90;;;;;;;;;;4994407;28;21096;-81
2020/12/04 14:14:48;;;;;;;13.93;8.93;;;;;;;;;;4971079;28;20633;-80
2020/12/04 14:17:52;;;;;;;14.97;9.23;;;;;;;;;;4970756;28;20550;-80
2020/12/04 14:20:57;;;;;;;15.00;9.03;;;;;;;;;;4970887;28;20542;-81
2020/12/04 14:24:01;;;;;;;15.93;10.30;;;;;;;;;;4960098;28;20624;-80
2020/12/04 14:27:05;;;;;;;14.53;9.03;;;;;;;;;;4983279;28;21198;-79
2020/12/04 14:30:09;;;;;;;14.43;9.43;;;;;;;;;;4986108;28;21079;-81
2020/12/04 14:33:13;;;;;;;17.63;9.60;;;;;;;;;;4986158;28;20640;-79
2020/12/04 14:36:21;;;;;;;15.07;9.43;;;;;;;;;;4986786;28;20550;-86
2020/12/04 14:39:25;;;;;;;21.67;11.87;;;;;;;;;;4986845;28;20898;-85
2020/12/04 14:42:30;;;;;;;27.63;14.00;;;;;;;;;;4965248;28;20530;-85
2020/12/04 14:45:34;;;;;;;20.17;11.57;;;;;;;;;;4965123;28;20585;-84
2020/12/04 14:48:43;;;;;;;16.43;9.90;;;;;;;;;;4975037;28;20608;-84
2020/12/04 14:51:47;;;;;;;15.60;8.93;;;;;;;;;;4975691;28;20542;-86
2020/12/04 14:54:51;;;;;;;16.90;9.43;;;;;;;;;;4975287;28;20628;-85
2020/12/04 14:57:56;;;;;;;15.00;9.10;;;;;;;;;;4966895;28;20542;-85
2020/12/04 15:01:00;;;;;;;16.50;9.00;;;;;;;;;;4976247;28;20882;-85
2020/12/04 15:04:04;;;;;;;17.63;9.73;;;;;;;;;;4965289;28;20628;-85
2020/12/04 15:07:08;;;;;;;13.53;8.87;;;;;;;;;;4964317;28;20592;-85
2020/12/04 15:10:13;;;;;;;16.33;8.77;;;;;;;;;;4977142;28;20553;-85
2020/12/04 15:13:18;;;;;;;17.27;9.20;;;;;;;;;;4967146;28;20961;-84
2020/12/04 15:16:22;;;;;;;15.30;8.80;;;;;;;;;;4976545;28;20549;-85
2020/12/04 15:19:26;;;;;;;14.67;8.93;;;;;;;;;;4977131;28;20546;-87
2020/12/04 15:22:30;;;;;;;14.00;8.70;;;;;;;;;;4964299;28;20546;-85
2020/12/04 15:25:34;;;;;;;12.83;8.63;;;;;;;;;;4985702;28;20937;-85
2020/12/04 15:28:39;;;;;;;13.53;8.80;;;;;;;;;;4963957;28;20549;-84
2020/12/04 15:31:43;;;;;;;12.40;8.30;;;;;;;;;;4963496;28;20597;-87
2020/12/04 15:34:47;;;;;;;15.87;9.53;;;;;;;;;;4974544;28;20980;-86
2020/12/04 15:37:52;;;;;;;14.57;9.50;;;;;;;;;;4974392;28;20542;-85
2020/12/04 15:40:57;;;;;;;13.57;8.97;;;;;;;;;;4977743;28;20558;-84
2020/12/04 15:44:01;;;;;;;13.97;8.93;;;;;;;;;;4964598;28;20640;-86
2020/12/04 15:47:06;;;;;;;13.77;8.67;;;;;;;;;;4974544;28;20605;-86
2020/12/04 15:50:11;;;;;;;16.10;9.37;;;;;;;;;;4962925;28;21084;-86
2020/12/04 15:53:15;;;;;;;14.33;8.87;;;;;;;;;;4963394;28;20617;-84
2020/12/04 15:56:19;;;;;;;14.83;8.97;;;;;;;;;;4963452;28;20545;-86
2020/12/04 15:59:23;;;;;;;12.13;8.13;;;;;;;;;;4962920;28;20542;-85
2020/12/04 16:02:27;;;;;;;13.90;8.30;;;;;;;;;;4963943;28;20605;-84
2020/12/04 16:05:31;;;;;;;12.40;7.90;;;;;;;;;;4971222;28;20608;-85
2020/12/04 16:08:35;;;;;;;12.50;8.20;;;;;;;;;;4979901;28;20546;-85
2020/12/04 16:11:48;;;;;;;23.53;9.17;;;;;;;;;;4985740;28;20574;-84
2020/12/04 16:14:52;;;;;;;15.00;9.93;;;;;;;;;;4982542;28;20968;-85
2020/12/04 16:17:57;;;;;;;11.47;8.50;;;;;;;;;;4983901;28;20601;-84
2020/12/04 16:21:01;;;;;;;12.33;7.80;;;;;;;;;;4973882;28;20609;-84
2020/12/04 16:24:05;;;;;;;13.03;8.57;;;;;;;;;;4985076;28;20628;-84
2020/12/04 16:27:13;;;;;;;11.10;7.90;;;;;;;;;;4979071;28;20589;-84
2020/12/04 16:30:17;;;;;;;13.33;7.83;;;;;;;;;;4981472;28;20558;-84
2020/12/04 16:33:22;;;;;;;14.73;8.80;;;;;;;;;;4990440;28;20641;-84
2020/12/04 16:36:26;;;;;;;13.90;8.67;;;;;;;;;;4968681;28;20534;-84
2020/12/04 16:39:30;;;;;;;13.87;8.17;;;;;;;;;;4966067;28;20537;-85
2020/12/04 16:42:34;;;;;;;12.87;8.23;;;;;;;;;;4976849;28;20549;-85
2020/12/04 16:45:39;;;;;;;15.40;8.33;;;;;;;;;;4966785;28;20545;-84
2020/12/04 16:48:44;;;;;;;13.87;7.87;;;;;;;;;;4977028;28;20542;-85
2020/12/04 16:51:48;;;;;;;13.47;7.47;;;;;;;;;;4973153;28;20550;-86
2020/12/04 16:54:53;;;;;;;15.47;7.93;;;;;;;;;;4973047;28;20633;-85
2020/12/04 16:57:57;;;;;;;15.47;7.93;;;;;;;;;;4983950;28;20949;-83
2020/12/04 17:01:02;;;;;;;16.40;8.07;;;;;;;;;;4974013;28;20597;-86
2020/12/04 17:04:06;;;;;;;13.30;7.43;;;;;;;;;;4976874;28;20633;-86
2020/12/04 17:07:10;;;;;;;13.40;7.93;;;;;;;;;;4984250;28;20593;-81
2020/12/04 17:10:15;;;;;;;13.30;7.60;;;;;;;;;;4972250;28;21139;-81
2020/12/04 17:13:19;;;;;;;13.10;7.73;;;;;;;;;;4983057;28;20620;-81
2020/12/04 17:16:23;;;;;;;10.63;7.43;;;;;;;;;;4973171;28;20554;-84
2020/12/04 17:19:29;;;;;;;13.10;7.40;;;;;;;;;;4962724;28;20538;-84
2020/12/04 17:22:33;;;;;;;10.20;7.17;;;;;;;;;;4962148;28;20175;-85
2020/12/04 17:25:37;;;;;;;11.60;7.33;;;;;;;;;;4972096;28;20549;-85
2020/12/04 17:28:42;;;;;;;13.23;7.43;;;;;;;;;;4972310;28;20530;-85
2020/12/04 17:31:46;;;;;;;11.70;7.63;;;;;;;;;;4960706;28;20902;-85
2020/12/04 17:34:50;;;;;;;11.90;7.60;;;;;;;;;;4983174;28;20644;-85
2020/12/04 17:37:55;;;;;;;10.90;7.07;;;;;;;;;;4960523;28;20589;-85
2020/12/04 17:41:00;;;;;;;10.97;7.30;;;;;;;;;;4982661;28;20550;-85
2020/12/04 17:44:04;;;;;;;12.57;7.83;;;;;;;;;;4960678;28;20650;-85
2020/12/04 17:47:08;;;;;;;10.63;7.37;;;;;;;;;;4982556;28;20949;-85
2020/12/04 17:50:13;;;;;;;14.47;7.47;;;;;;;;;;4960870;28;20601;-84
2020/12/04 17:53:18;;;;;;;11.17;7.83;;;;;;;;;;4960599;28;20624;-84
2020/12/04 17:56:23;;;;;;;11.57;7.17;;;;;;;;;;4982635;28;20538;-84
2020/12/04 17:59:27;;;;;;;10.73;6.37;;;;;;;;;;4971505;28;20546;-84
2020/12/04 18:02:31;;;;;;;11.83;6.97;;;;;;;;;;4970850;28;20566;-85